sensor_id;sensor_type;location;lat;lon;timestamp;pressure;altitude;pressure_sealevel;temperature;humidity
7768;BME280;3928;42.626;23.382;2023-02-15T00:01:05;95317.09;;;5.38;70.02
7768;BME280;3928;42.626;23.382;2023-02-15T00:03:32;95323.72;;;5.29;70.67
7768;BME280;3928;42.626;23.382;2023-02-15T00:05:59;95331.50;;;5.36;70.66
7768;BME280;3928;42.626;23.382;2023-02-15T00:08:27;95330.44;;;5.26;70.78
7768;BME280;3928;42.626;23.382;2023-02-15T00:11:03;95344.81;;;5.22;70.72
7768;BME280;3928;42.626;23.382;2023-02-15T00:13:30;95339.72;;;5.22;71.39
7768;BME280;3928;42.626;23.382;2023-02-15T00:16:00;95339.63;;;5.19;71.89
7768;BME280;3928;42.626;23.382;2023-02-15T00:18:27;95333.63;;;5.16;71.51
7768;BME280;3928;42.626;23.382;2023-02-15T00:20:54;95346.69;;;5.33;71.02
7768;BME280;3928;42.626;23.382;2023-02-15T00:23:20;95343.00;;;5.18;72.04
7768;BME280;3928;42.626;23.382;2023-02-15T00:25:49;95351.59;;;5.23;71.74
7768;BME280;3928;42.626;23.382;2023-02-15T00:28:15;95336.91;;;5.10;72.09
7768;BME280;3928;42.626;23.382;2023-02-15T00:30:42;95342.16;;;5.18;72.30
7768;BME280;3928;42.626;23.382;2023-02-15T00:33:09;95334.59;;;5.21;71.29
7768;BME280;3928;42.626;23.382;2023-02-15T00:35:36;95341.22;;;5.14;71.76
7768;BME280;3928;42.626;23.382;2023-02-15T00:38:02;95336.97;;;5.13;71.72
7768;BME280;3928;42.626;23.382;2023-02-15T00:40:29;95338.50;;;5.05;72.39
7768;BME280;3928;42.626;23.382;2023-02-15T00:42:57;95345.38;;;5.09;72.12
7768;BME280;3928;42.626;23.382;2023-02-15T00:45:25;95351.28;;;5.08;71.72
7768;BME280;3928;42.626;23.382;2023-02-15T00:47:51;95347.59;;;4.94;73.25
7768;BME280;3928;42.626;23.382;2023-02-15T00:50:18;95350.84;;;4.87;73.87
7768;BME280;3928;42.626;23.382;2023-02-15T00:52:45;95341.53;;;4.87;73.73
7768;BME280;3928;42.626;23.382;2023-02-15T00:55:12;95343.59;;;5.05;72.54
7768;BME280;3928;42.626;23.382;2023-02-15T00:57:38;95327.47;;;5.05;72.38
7768;BME280;3928;42.626;23.382;2023-02-15T01:00:08;95330.06;;;5.08;72.87
7768;BME280;3928;42.626;23.382;2023-02-15T01:02:34;95340.44;;;5.17;72.71
7768;BME280;3928;42.626;23.382;2023-02-15T01:05:01;95337.78;;;5.11;72.66
7768;BME280;3928;42.626;23.382;2023-02-15T01:07:28;95330.00;;;5.05;72.89
7768;BME280;3928;42.626;23.382;2023-02-15T01:09:55;95325.03;;;5.09;72.12
7768;BME280;3928;42.626;23.382;2023-02-15T01:12:21;95333.69;;;5.19;71.91
7768;BME280;3928;42.626;23.382;2023-02-15T01:14:48;95333.63;;;5.16;72.25
7768;BME280;3928;42.626;23.382;2023-02-15T01:17:16;95329.19;;;5.07;72.42
7768;BME280;3928;42.626;23.382;2023-02-15T01:19:43;95317.50;;;5.15;71.81
7768;BME280;3928;42.626;23.382;2023-02-15T01:22:10;95327.38;;;5.00;72.15
7768;BME280;3928;42.626;23.382;2023-02-15T01:24:37;95325.66;;;4.99;73.38
7768;BME280;3928;42.626;23.382;2023-02-15T01:27:03;95318.66;;;4.89;73.32
7768;BME280;3928;42.626;23.382;2023-02-15T01:29:30;95323.84;;;4.95;73.65
7768;BME280;3928;42.626;23.382;2023-02-15T01:31:57;95313.63;;;4.92;72.47
7768;BME280;3928;42.626;23.382;2023-02-15T01:34:25;95316.16;;;4.92;73.92
7768;BME280;3928;42.626;23.382;2023-02-15T01:36:52;95319.19;;;4.74;73.91
7768;BME280;3928;42.626;23.382;2023-02-15T01:39:19;95304.41;;;4.58;74.70
7768;BME280;3928;42.626;23.382;2023-02-15T01:41:46;95310.06;;;4.84;74.50
7768;BME280;3928;42.626;23.382;2023-02-15T01:44:45;95318.66;;;4.89;74.35
7768;BME280;3928;42.626;23.382;2023-02-15T01:47:14;95311.41;;;5.09;72.95
7768;BME280;3928;42.626;23.382;2023-02-15T01:49:45;95309.88;;;5.15;73.08
7768;BME280;3928;42.626;23.382;2023-02-15T01:52:15;95302.94;;;5.08;72.70
7768;BME280;3928;42.626;23.382;2023-02-15T01:54:45;95301.84;;;4.97;73.12
7768;BME280;3928;42.626;23.382;2023-02-15T01:57:16;95306.13;;;4.98;73.08
7768;BME280;3928;42.626;23.382;2023-02-15T01:59:47;95312.94;;;4.99;73.04
7768;BME280;3928;42.626;23.382;2023-02-15T02:02:17;95300.47;;;5.11;73.38
7768;BME280;3928;42.626;23.382;2023-02-15T02:04:49;95306.44;;;5.13;73.25
7768;BME280;3928;42.626;23.382;2023-02-15T02:07:19;95310.31;;;4.96;73.43
7768;BME280;3928;42.626;23.382;2023-02-15T02:09:47;95295.25;;;5.05;72.94
7768;BME280;3928;42.626;23.382;2023-02-15T02:12:15;95310.81;;;5.20;73.07
7768;BME280;3928;42.626;23.382;2023-02-15T02:14:43;95309.47;;;5.38;72.92
7768;BME280;3928;42.626;23.382;2023-02-15T02:17:16;95301.53;;;5.22;73.12
7768;BME280;3928;42.626;23.382;2023-02-15T02:23:02;95318.91;;;5.01;73.32
7768;BME280;3928;42.626;23.382;2023-02-15T02:29:07;95321.03;;;5.22;73.22
7768;BME280;3928;42.626;23.382;2023-02-15T02:31:48;95311.78;;;5.25;72.40
7768;BME280;3928;42.626;23.382;2023-02-15T02:34:28;95322.59;;;5.15;72.47
7768;BME280;3928;42.626;23.382;2023-02-15T02:37:01;95320.22;;;5.23;73.18
7768;BME280;3928;42.626;23.382;2023-02-15T02:39:33;95316.72;;;5.19;72.45
7768;BME280;3928;42.626;23.382;2023-02-15T02:42:07;95308.22;;;5.17;72.82
7768;BME280;3928;42.626;23.382;2023-02-15T02:44:41;95321.28;;;4.93;74.10
7768;BME280;3928;42.626;23.382;2023-02-15T02:47:13;95312.09;;;4.98;74.95
7768;BME280;3928;42.626;23.382;2023-02-15T02:49:44;95312.25;;;5.08;74.37
7768;BME280;3928;42.626;23.382;2023-02-15T02:52:34;95316.47;;;5.07;74.42
7768;BME280;3928;42.626;23.382;2023-02-15T02:55:03;95313.44;;;5.23;73.45
7768;BME280;3928;42.626;23.382;2023-02-15T02:57:32;95309.34;;;5.32;72.88
7768;BME280;3928;42.626;23.382;2023-02-15T03:00:00;95309.34;;;5.32;73.12
7768;BME280;3928;42.626;23.382;2023-02-15T03:02:33;95317.50;;;5.15;72.61
7768;BME280;3928;42.626;23.382;2023-02-15T03:05:07;95318.13;;;5.04;73.01
7768;BME280;3928;42.626;23.382;2023-02-15T03:07:35;95327.88;;;5.24;72.89
7768;BME280;3928;42.626;23.382;2023-02-15T03:10:05;95317.88;;;5.34;73.11
7768;BME280;3928;42.626;23.382;2023-02-15T03:12:36;95343.75;;;5.13;73.79
7768;BME280;3928;42.626;23.382;2023-02-15T03:15:07;95341.41;;;5.22;72.80
7768;BME280;3928;42.626;23.382;2023-02-15T03:17:37;95331.97;;;5.18;73.71
7768;BME280;3928;42.626;23.382;2023-02-15T03:20:13;95347.16;;;5.13;73.96
7768;BME280;3928;42.626;23.382;2023-02-15T03:22:45;95335.47;;;5.23;73.60
7768;BME280;3928;42.626;23.382;2023-02-15T03:25:18;95312.22;;;5.06;73.82
7768;BME280;3928;42.626;23.382;2023-02-15T03:27:49;95336.41;;;5.28;73.24
7768;BME280;3928;42.626;23.382;2023-02-15T03:30:20;95332.16;;;5.27;72.42
7768;BME280;3928;42.626;23.382;2023-02-15T03:32:49;95333.16;;;5.34;73.43
7768;BME280;3928;42.626;23.382;2023-02-15T03:35:22;95334.44;;;5.13;73.63
7768;BME280;3928;42.626;23.382;2023-02-15T03:37:53;95336.22;;;5.19;74.35
7768;BME280;3928;42.626;23.382;2023-02-15T03:40:23;95331.13;;;5.17;73.16
7768;BME280;3928;42.626;23.382;2023-02-15T03:43:12;95329.94;;;5.44;73.44
7768;BME280;3928;42.626;23.382;2023-02-15T03:45:43;95308.25;;;5.20;73.18
7768;BME280;3928;42.626;23.382;2023-02-15T03:48:22;95338.47;;;5.46;72.90
7768;BME280;3928;42.626;23.382;2023-02-15T03:50:53;95332.19;;;5.28;73.01
7768;BME280;3928;42.626;23.382;2023-02-15T03:53:40;95327.94;;;5.27;73.32
7768;BME280;3928;42.626;23.382;2023-02-15T03:56:07;95338.84;;;5.22;73.50
7768;BME280;3928;42.626;23.382;2023-02-15T03:58:34;95335.81;;;5.40;73.37
7768;BME280;3928;42.626;23.382;2023-02-15T04:01:27;95344.03;;;5.26;73.16
7768;BME280;3928;42.626;23.382;2023-02-15T04:04:25;95333.22;;;5.37;72.50
7768;BME280;3928;42.626;23.382;2023-02-15T04:06:54;95316.72;;;5.19;72.63
7768;BME280;3928;42.626;23.382;2023-02-15T04:09:21;95343.38;;;5.37;72.99
7768;BME280;3928;42.626;23.382;2023-02-15T04:12:05;95349.44;;;5.43;73.29
7768;BME280;3928;42.626;23.382;2023-02-15T04:14:32;95349.44;;;5.43;72.71
7768;BME280;3928;42.626;23.382;2023-02-15T04:17:31;95348.69;;;5.07;74.96
7768;BME280;3928;42.626;23.382;2023-02-15T04:19:58;95359.47;;;5.34;74.27
7768;BME280;3928;42.626;23.382;2023-02-15T04:22:44;95349.81;;;5.19;73.59
7768;BME280;3928;42.626;23.382;2023-02-15T04:25:28;95355.91;;;5.26;73.74
7768;BME280;3928;42.626;23.382;2023-02-15T04:27:55;95362.16;;;5.42;73.98
7768;BME280;3928;42.626;23.382;2023-02-15T04:30:24;95372.81;;;5.22;75.26
7768;BME280;3928;42.626;23.382;2023-02-15T04:32:51;95380.78;;;5.41;74.36
7768;BME280;3928;42.626;23.382;2023-02-15T04:35:19;95376.44;;;5.34;74.56
7768;BME280;3928;42.626;23.382;2023-02-15T04:37:47;95372.31;;;5.42;73.55
7768;BME280;3928;42.626;23.382;2023-02-15T04:40:15;95378.13;;;5.35;74.38
7768;BME280;3928;42.626;23.382;2023-02-15T04:42:42;95383.50;;;5.48;74.50
7768;BME280;3928;42.626;23.382;2023-02-15T04:45:09;95385.94;;;5.44;74.36
7768;BME280;3928;42.626;23.382;2023-02-15T04:47:35;95322.34;;;5.03;74.10
7768;BME280;3928;42.626;23.382;2023-02-15T04:50:03;95380.75;;;5.39;74.61
7768;BME280;3928;42.626;23.382;2023-02-15T04:52:30;95380.09;;;5.48;74.46
7768;BME280;3928;42.626;23.382;2023-02-15T04:54:58;95384.31;;;5.46;74.67
7768;BME280;3928;42.626;23.382;2023-02-15T04:57:25;95383.78;;;5.62;73.39
7768;BME280;3928;42.626;23.382;2023-02-15T04:59:51;95394.06;;;5.68;73.75
7768;BME280;3928;42.626;23.382;2023-02-15T05:02:18;95379.47;;;5.60;73.63
7768;BME280;3928;42.626;23.382;2023-02-15T05:04:45;95392.44;;;5.70;73.38
7768;BME280;3928;42.626;23.382;2023-02-15T05:07:12;95389.66;;;5.60;73.90
7768;BME280;3928;42.626;23.382;2023-02-15T05:09:40;95391.88;;;5.44;74.15
7768;BME280;3928;42.626;23.382;2023-02-15T05:12:08;95397.44;;;5.67;72.87
7768;BME280;3928;42.626;23.382;2023-02-15T05:14:35;95401.69;;;5.68;73.48
7768;BME280;3928;42.626;23.382;2023-02-15T05:17:01;95389.94;;;5.73;74.34
7768;BME280;3928;42.626;23.382;2023-02-15T05:19:30;95392.34;;;5.67;72.83
7768;BME280;3928;42.626;23.382;2023-02-15T05:21:57;95403.53;;;5.75;73.27
7768;BME280;3928;42.626;23.382;2023-02-15T05:24:24;95384.84;;;5.73;72.97
7768;BME280;3928;42.626;23.382;2023-02-15T05:27:11;95406.94;;;5.74;72.66
7768;BME280;3928;42.626;23.382;2023-02-15T05:29:56;95412.63;;;5.63;72.93
7768;BME280;3928;42.626;23.382;2023-02-15T05:32:22;95421.28;;;5.69;72.65
7768;BME280;3928;42.626;23.382;2023-02-15T05:34:50;95417.69;;;5.60;72.93
7768;BME280;3928;42.626;23.382;2023-02-15T05:37:17;95411.84;;;5.67;73.32
7768;BME280;3928;42.626;23.382;2023-02-15T05:39:44;95354.97;;;5.22;73.83
7768;BME280;3928;42.626;23.382;2023-02-15T05:42:12;95418.09;;;5.39;74.21
7768;BME280;3928;42.626;23.382;2023-02-15T05:44:39;95412.75;;;5.26;75.16
7768;BME280;3928;42.626;23.382;2023-02-15T05:47:06;95414.59;;;5.34;79.10
7768;BME280;3928;42.626;23.382;2023-02-15T05:49:33;95415.78;;;5.51;75.37
7768;BME280;3928;42.626;23.382;2023-02-15T05:52:00;95428.09;;;5.70;73.84
7768;BME280;3928;42.626;23.382;2023-02-15T05:54:27;95411.78;;;5.62;73.66
7768;BME280;3928;42.626;23.382;2023-02-15T05:56:54;95399.16;;;5.68;73.16
7768;BME280;3928;42.626;23.382;2023-02-15T05:59:22;95420.09;;;5.55;72.97
7768;BME280;3928;42.626;23.382;2023-02-15T06:01:49;95415.03;;;5.55;73.34
7768;BME280;3928;42.626;23.382;2023-02-15T06:04:16;95409.03;;;5.53;73.02
7768;BME280;3928;42.626;23.382;2023-02-15T06:06:43;95428.34;;;5.43;73.79
7768;BME280;3928;42.626;23.382;2023-02-15T06:09:10;95372.03;;;4.87;75.11
7768;BME280;3928;42.626;23.382;2023-02-15T06:11:37;95422.78;;;5.20;74.45
7768;BME280;3928;42.626;23.382;2023-02-15T06:14:04;95433.31;;;5.36;75.33
7768;BME280;3928;42.626;23.382;2023-02-15T06:16:32;95422.56;;;5.49;74.71
7768;BME280;3928;42.626;23.382;2023-02-15T06:18:59;95409.81;;;5.49;74.01
7768;BME280;3928;42.626;23.382;2023-02-15T06:21:27;95429.47;;;5.56;73.94
7768;BME280;3928;42.626;23.382;2023-02-15T06:23:54;95439.09;;;5.69;72.65
7768;BME280;3928;42.626;23.382;2023-02-15T06:26:20;95440.47;;;5.55;73.80
7768;BME280;3928;42.626;23.382;2023-02-15T06:28:47;95433.69;;;5.55;73.50
7768;BME280;3928;42.626;23.382;2023-02-15T06:31:14;95431.47;;;5.69;73.36
7768;BME280;3928;42.626;23.382;2023-02-15T06:33:43;95431.03;;;5.49;73.42
7768;BME280;3928;42.626;23.382;2023-02-15T06:36:10;95421.41;;;5.35;74.16
7768;BME280;3928;42.626;23.382;2023-02-15T06:38:38;95423.03;;;5.33;73.86
7768;BME280;3928;42.626;23.382;2023-02-15T06:41:04;95429.13;;;5.39;74.68
7768;BME280;3928;42.626;23.382;2023-02-15T06:43:32;95425.16;;;5.52;73.97
7768;BME280;3928;42.626;23.382;2023-02-15T06:45:59;95409.50;;;5.34;73.75
7768;BME280;3928;42.626;23.382;2023-02-15T06:48:26;95432.94;;;5.58;73.23
7768;BME280;3928;42.626;23.382;2023-02-15T06:50:54;95430.13;;;5.46;74.36
7768;BME280;3928;42.626;23.382;2023-02-15T06:53:21;95432.22;;;5.24;75.21
7768;BME280;3928;42.626;23.382;2023-02-15T06:55:48;95430.00;;;5.40;76.21
7768;BME280;3928;42.626;23.382;2023-02-15T06:58:14;95423.22;;;5.42;74.09
7768;BME280;3928;42.626;23.382;2023-02-15T07:00:43;95423.72;;;5.65;74.93
7768;BME280;3928;42.626;23.382;2023-02-15T07:03:13;95415.50;;;5.79;76.57
7768;BME280;3928;42.626;23.382;2023-02-15T07:05:40;95424.69;;;6.15;76.49
7768;BME280;3928;42.626;23.382;2023-02-15T07:08:08;95427.72;;;6.41;69.79
7768;BME280;3928;42.626;23.382;2023-02-15T07:10:35;95426.25;;;6.54;68.69
7768;BME280;3928;42.626;23.382;2023-02-15T07:13:02;95419.53;;;6.60;68.15
7768;BME280;3928;42.626;23.382;2023-02-15T07:15:27;95406.75;;;6.59;67.67
7768;BME280;3928;42.626;23.382;2023-02-15T07:17:54;95423.28;;;6.81;67.02
7768;BME280;3928;42.626;23.382;2023-02-15T07:20:23;95410.72;;;6.94;66.57
7768;BME280;3928;42.626;23.382;2023-02-15T07:22:50;95427.41;;;7.30;66.78
7768;BME280;3928;42.626;23.382;2023-02-15T07:25:19;95429.38;;;7.51;63.34
7768;BME280;3928;42.626;23.382;2023-02-15T07:27:46;95441.47;;;7.64;62.41
7768;BME280;3928;42.626;23.382;2023-02-15T07:30:15;95430.66;;;7.85;63.56
7768;BME280;3928;42.626;23.382;2023-02-15T07:32:42;95440.19;;;7.98;60.75
7768;BME280;3928;42.626;23.382;2023-02-15T07:35:23;95421.34;;;7.91;60.42
7768;BME280;3928;42.626;23.382;2023-02-15T07:37:50;95424.16;;;8.14;59.88
7768;BME280;3928;42.626;23.382;2023-02-15T07:40:19;95425.69;;;7.97;59.33
7768;BME280;3928;42.626;23.382;2023-02-15T07:42:50;95427.38;;;7.95;59.41
7768;BME280;3928;42.626;23.382;2023-02-15T07:45:20;95423.94;;;7.93;59.09
7768;BME280;3928;42.626;23.382;2023-02-15T07:47:47;95423.44;;;7.52;60.31
7768;BME280;3928;42.626;23.382;2023-02-15T07:50:14;95423.56;;;7.62;60.11
7768;BME280;3928;42.626;23.382;2023-02-15T07:52:41;95422.63;;;7.56;59.61
7768;BME280;3928;42.626;23.382;2023-02-15T07:55:08;95418.31;;;7.50;59.53
7768;BME280;3928;42.626;23.382;2023-02-15T07:57:41;95419.91;;;7.42;59.67
7768;BME280;3928;42.626;23.382;2023-02-15T08:00:09;95428.50;;;7.47;59.83
7768;BME280;3928;42.626;23.382;2023-02-15T08:02:37;95427.66;;;7.47;60.27
7768;BME280;3928;42.626;23.382;2023-02-15T08:05:04;95420.16;;;7.60;58.95
7768;BME280;3928;42.626;23.382;2023-02-15T08:07:31;95419.50;;;7.78;58.95
7768;BME280;3928;42.626;23.382;2023-02-15T08:09:57;95428.81;;;7.73;58.70
7768;BME280;3928;42.626;23.382;2023-02-15T08:12:25;95431.38;;;7.72;58.79
7768;BME280;3928;42.626;23.382;2023-02-15T08:14:54;95432.16;;;7.68;59.09
7768;BME280;3928;42.626;23.382;2023-02-15T08:17:21;95434.41;;;7.45;60.41
7768;BME280;3928;42.626;23.382;2023-02-15T08:19:48;95438.06;;;7.62;60.05
7768;BME280;3928;42.626;23.382;2023-02-15T08:22:14;95432.53;;;7.98;59.67
7768;BME280;3928;42.626;23.382;2023-02-15T08:24:41;95354.19;;;7.27;58.59
7768;BME280;3928;42.626;23.382;2023-02-15T08:27:10;95430.25;;;7.51;59.55
7768;BME280;3928;42.626;23.382;2023-02-15T08:29:37;95442.97;;;7.48;58.97
7768;BME280;3928;42.626;23.382;2023-02-15T08:32:07;95432.13;;;7.02;58.66
7768;BME280;3928;42.626;23.382;2023-02-15T08:34:36;95434.38;;;7.43;59.07
7768;BME280;3928;42.626;23.382;2023-02-15T08:37:04;95439.03;;;7.72;59.23
7768;BME280;3928;42.626;23.382;2023-02-15T08:39:32;95434.09;;;7.87;58.48
7768;BME280;3928;42.626;23.382;2023-02-15T08:41:58;95419.00;;;8.08;57.09
7768;BME280;3928;42.626;23.382;2023-02-15T08:44:26;95431.38;;;8.49;57.65
7768;BME280;3928;42.626;23.382;2023-02-15T08:46:52;95435.75;;;8.62;55.07
7768;BME280;3928;42.626;23.382;2023-02-15T08:49:21;95441.06;;;8.85;55.04
7768;BME280;3928;42.626;23.382;2023-02-15T08:51:49;95437.19;;;8.34;54.98
7768;BME280;3928;42.626;23.382;2023-02-15T08:54:18;95437.91;;;8.26;55.52
7768;BME280;3928;42.626;23.382;2023-02-15T08:56:46;95416.59;;;8.22;55.70
7768;BME280;3928;42.626;23.382;2023-02-15T08:59:15;95434.03;;;8.63;55.42
7768;BME280;3928;42.626;23.382;2023-02-15T09:01:42;95445.28;;;8.78;54.31
7768;BME280;3928;42.626;23.382;2023-02-15T09:04:09;95442.94;;;9.04;53.06
7768;BME280;3928;42.626;23.382;2023-02-15T09:06:38;95437.13;;;9.25;53.91
7768;BME280;3928;42.626;23.382;2023-02-15T09:09:06;95439.91;;;9.66;52.91
7768;BME280;3928;42.626;23.382;2023-02-15T09:11:35;95436.47;;;9.67;51.04
7768;BME280;3928;42.626;23.382;2023-02-15T09:14:04;95444.09;;;9.57;50.58
7768;BME280;3928;42.626;23.382;2023-02-15T09:16:34;95425.09;;;9.17;51.44
7768;BME280;3928;42.626;23.382;2023-02-15T09:19:01;95411.63;;;9.50;51.79
7768;BME280;3928;42.626;23.382;2023-02-15T09:21:31;95413.41;;;9.66;53.30
7768;BME280;3928;42.626;23.382;2023-02-15T09:24:01;95417.66;;;9.61;50.97
7768;BME280;3928;42.626;23.382;2023-02-15T09:26:29;95434.91;;;10.05;51.25
7768;BME280;3928;42.626;23.382;2023-02-15T09:28:58;95430.81;;;10.43;48.59
7768;BME280;3928;42.626;23.382;2023-02-15T09:31:27;95433.38;;;10.62;46.34
7768;BME280;3928;42.626;23.382;2023-02-15T09:33:55;95434.25;;;10.70;46.02
7768;BME280;3928;42.626;23.382;2023-02-15T09:36:23;95429.09;;;10.62;46.38
7768;BME280;3928;42.626;23.382;2023-02-15T09:38:54;95434.25;;;10.88;45.33
7768;BME280;3928;42.626;23.382;2023-02-15T09:41:43;95427.41;;;10.87;45.15
7768;BME280;3928;42.626;23.382;2023-02-15T09:44:24;95431.69;;;10.80;44.78
7768;BME280;3928;42.626;23.382;2023-02-15T09:47:24;95381.19;;;10.57;45.11
7768;BME280;3928;42.626;23.382;2023-02-15T09:50:03;95428.28;;;10.83;44.83
7768;BME280;3928;42.626;23.382;2023-02-15T09:52:48;95430.84;;;10.68;45.98
7768;BME280;3928;42.626;23.382;2023-02-15T09:55:37;95425.66;;;10.48;45.44
7768;BME280;3928;42.626;23.382;2023-02-15T09:58:15;95425.69;;;10.83;45.40
7768;BME280;3928;42.626;23.382;2023-02-15T10:00:50;95429.97;;;10.60;45.70
7768;BME280;3928;42.626;23.382;2023-02-15T10:03:33;95432.50;;;10.38;46.59
7768;BME280;3928;42.626;23.382;2023-02-15T10:06:16;95430.81;;;10.56;46.51
7768;BME280;3928;42.626;23.382;2023-02-15T10:08:58;95423.13;;;10.95;46.80
7768;BME280;3928;42.626;23.382;2023-02-15T10:11:36;95424.81;;;11.31;45.26
7768;BME280;3928;42.626;23.382;2023-02-15T10:14:30;95419.63;;;11.54;44.90
7768;BME280;3928;42.626;23.382;2023-02-15T10:17:12;95423.75;;;12.04;43.87
7768;BME280;3928;42.626;23.382;2023-02-15T10:19:46;95421.28;;;11.75;43.25
7768;BME280;3928;42.626;23.382;2023-02-15T10:22:28;95417.06;;;11.48;42.89
7768;BME280;3928;42.626;23.382;2023-02-15T10:25:12;95417.00;;;11.85;42.81
7768;BME280;3928;42.626;23.382;2023-02-15T10:27:45;95414.38;;;11.97;41.82
7768;BME280;3928;42.626;23.382;2023-02-15T10:30:15;95415.28;;;11.87;42.62
7768;BME280;3928;42.626;23.382;2023-02-15T10:32:53;95406.53;;;12.18;42.41
7768;BME280;3928;42.626;23.382;2023-02-15T10:35:32;95406.41;;;12.40;41.81
7768;BME280;3928;42.626;23.382;2023-02-15T10:38:11;95406.44;;;12.37;41.69
7768;BME280;3928;42.626;23.382;2023-02-15T10:40:48;95406.53;;;12.18;41.49
7768;BME280;3928;42.626;23.382;2023-02-15T10:43:38;95395.34;;;12.28;41.50
7768;BME280;3928;42.626;23.382;2023-02-15T10:46:15;95389.84;;;12.77;41.32
7768;BME280;3928;42.626;23.382;2023-02-15T10:49:11;95394.66;;;13.22;39.22
7768;BME280;3928;42.626;23.382;2023-02-15T10:51:52;95395.47;;;13.25;38.08
7768;BME280;3928;42.626;23.382;2023-02-15T10:54:31;95390.22;;;13.36;38.04
7768;BME280;3928;42.626;23.382;2023-02-15T10:57:04;95391.34;;;13.06;38.96
7768;BME280;3928;42.626;23.382;2023-02-15T10:59:58;95388.63;;;13.24;38.42
7768;BME280;3928;42.626;23.382;2023-02-15T11:02:42;95380.50;;;13.59;37.31
7768;BME280;3928;42.626;23.382;2023-02-15T11:05:34;95386.88;;;14.03;37.61
7768;BME280;3928;42.626;23.382;2023-02-15T11:08:06;95372.56;;;14.42;36.37
7768;BME280;3928;42.626;23.382;2023-02-15T11:10:38;95374.97;;;14.59;36.01
7768;BME280;3928;42.626;23.382;2023-02-15T11:13:09;95342.75;;;14.78;35.94
7768;BME280;3928;42.626;23.382;2023-02-15T11:15:41;95367.66;;;15.35;34.97
7768;BME280;3928;42.626;23.382;2023-02-15T11:18:13;95366.34;;;15.60;34.84
7768;BME280;3928;42.626;23.382;2023-02-15T11:20:49;95361.75;;;15.76;34.41
7768;BME280;3928;42.626;23.382;2023-02-15T11:23:20;95376.72;;;16.03;33.62
7768;BME280;3928;42.626;23.382;2023-02-15T11:25:54;95353.44;;;16.02;33.76
7768;BME280;3928;42.626;23.382;2023-02-15T11:28:25;95217.44;;;15.44;33.53
7768;BME280;3928;42.626;23.382;2023-02-15T11:30:55;95369.03;;;15.99;33.55
7768;BME280;3928;42.626;23.382;2023-02-15T11:33:27;95343.56;;;15.33;34.41
7768;BME280;3928;42.626;23.382;2023-02-15T11:35:58;95362.47;;;14.85;34.86
7768;BME280;3928;42.626;23.382;2023-02-15T11:38:29;95372.16;;;15.24;34.96
7768;BME280;3928;42.626;23.382;2023-02-15T11:41:01;95375.63;;;15.70;34.10
7768;BME280;3928;42.626;23.382;2023-02-15T11:43:33;95365.34;;;16.09;33.55
7768;BME280;3928;42.626;23.382;2023-02-15T11:46:02;95366.47;;;16.37;32.84
7768;BME280;3928;42.626;23.382;2023-02-15T11:48:31;95352.91;;;16.26;33.17
7768;BME280;3928;42.626;23.382;2023-02-15T11:50:59;95355.56;;;15.82;33.43
7768;BME280;3928;42.626;23.382;2023-02-15T11:53:29;95345.56;;;16.06;33.30
7768;BME280;3928;42.626;23.382;2023-02-15T11:55:58;95352.56;;;16.03;33.53
7768;BME280;3928;42.626;23.382;2023-02-15T11:58:30;95344.19;;;15.90;33.30
7768;BME280;3928;42.626;23.382;2023-02-15T12:01:04;95337.69;;;16.13;32.83
7768;BME280;3928;42.626;23.382;2023-02-15T12:03:43;95330.47;;;15.85;33.03
7768;BME280;3928;42.626;23.382;2023-02-15T12:06:16;95327.25;;;16.16;33.32
7768;BME280;3928;42.626;23.382;2023-02-15T12:08:49;95332.78;;;15.99;33.34
7768;BME280;3928;42.626;23.382;2023-02-15T12:11:20;95333.50;;;16.44;32.36
7768;BME280;3928;42.626;23.382;2023-02-15T12:13:57;95336.81;;;16.51;32.02
7768;BME280;3928;42.626;23.382;2023-02-15T12:16:25;95324.38;;;16.65;32.07
7768;BME280;3928;42.626;23.382;2023-02-15T12:18:55;95322.50;;;17.07;32.16
7768;BME280;3928;42.626;23.382;2023-02-15T12:21:28;95335.53;;;17.71;30.96
7768;BME280;3928;42.626;23.382;2023-02-15T12:24:00;95297.00;;;18.16;29.60
7768;BME280;3928;42.626;23.382;2023-02-15T12:26:32;95318.91;;;17.45;30.13
7768;BME280;3928;42.626;23.382;2023-02-15T12:29:00;95305.84;;;17.16;31.37
7768;BME280;3928;42.626;23.382;2023-02-15T12:31:32;95315.06;;;17.59;31.28
7768;BME280;3928;42.626;23.382;2023-02-15T12:34:03;95307.44;;;17.54;31.20
7768;BME280;3928;42.626;23.382;2023-02-15T12:36:42;95313.81;;;17.42;30.84
7768;BME280;3928;42.626;23.382;2023-02-15T12:39:20;95318.00;;;17.14;31.80
7768;BME280;3928;42.626;23.382;2023-02-15T12:41:59;95304.19;;;16.79;32.11
7768;BME280;3928;42.626;23.382;2023-02-15T12:44:27;95303.56;;;17.36;31.85
7768;BME280;3928;42.626;23.382;2023-02-15T12:47:00;95285.72;;;17.57;30.76
7768;BME280;3928;42.626;23.382;2023-02-15T12:49:29;95282.25;;;17.89;30.65
7768;BME280;3928;42.626;23.382;2023-02-15T12:51:57;95291.22;;;18.62;29.86
7768;BME280;3928;42.626;23.382;2023-02-15T12:54:43;95286.34;;;19.06;28.56
7768;BME280;3928;42.626;23.382;2023-02-15T12:57:25;95278.09;;;18.67;29.19
7768;BME280;3928;42.626;23.382;2023-02-15T12:59:54;95281.69;;;19.14;28.88
7768;BME280;3928;42.626;23.382;2023-02-15T13:02:27;95283.78;;;19.54;28.31
7768;BME280;3928;42.626;23.382;2023-02-15T13:04:57;95283.78;;;19.54;28.37
7768;BME280;3928;42.626;23.382;2023-02-15T13:07:31;95286.06;;;19.64;27.87
7768;BME280;3928;42.626;23.382;2023-02-15T13:09:58;95280.13;;;19.60;28.23
7768;BME280;3928;42.626;23.382;2023-02-15T13:12:27;95277.50;;;20.07;27.88
7768;BME280;3928;42.626;23.382;2023-02-15T13:14:57;95272.59;;;20.21;27.41
7768;BME280;3928;42.626;23.382;2023-02-15T13:20:19;95261.66;;;20.57;26.94
7768;BME280;3928;42.626;23.382;2023-02-15T13:22:49;95266.44;;;20.67;26.82
7768;BME280;3928;42.626;23.382;2023-02-15T13:25:19;95274.25;;;20.24;27.35
7768;BME280;3928;42.626;23.382;2023-02-15T13:27:51;95267.22;;;18.81;28.64
7768;BME280;3928;42.626;23.382;2023-02-15T13:30:31;95276.66;;;18.57;29.42
7768;BME280;3928;42.626;23.382;2023-02-15T13:33:03;95269.28;;;18.97;28.66
7768;BME280;3928;42.626;23.382;2023-02-15T13:35:38;95281.97;;;19.32;28.47
7768;BME280;3928;42.626;23.382;2023-02-15T13:38:15;95275.03;;;19.57;27.90
7768;BME280;3928;42.626;23.382;2023-02-15T13:40:49;95265.97;;;19.67;27.69
7768;BME280;3928;42.626;23.382;2023-02-15T13:43:28;95269.03;;;20.02;27.54
7768;BME280;3928;42.626;23.382;2023-02-15T13:46:12;95267.44;;;19.98;27.60
7768;BME280;3928;42.626;23.382;2023-02-15T13:48:48;95266.25;;;20.28;27.37